createdAt,value
2022-11-14T00:02:13.343Z,116.43
2022-11-14T00:04:59.828Z,119.27
2022-11-14T00:07:47.406Z,133.97
2022-11-14T00:10:33.996Z,139.63
2022-11-14T00:13:21.090Z,97.93
2022-11-14T00:16:07.630Z,116.23
2022-11-14T00:18:53.979Z,136.67
2022-11-14T00:21:40.485Z,106.07
2022-11-14T00:24:26.870Z,124.43
2022-11-14T00:27:13.432Z,128.23
2022-11-14T00:29:59.323Z,84.70
2022-11-14T00:32:46.111Z,100.23
2022-11-14T00:35:31.942Z,88.03
2022-11-14T00:38:18.410Z,120.83
2022-11-14T00:41:04.421Z,125.93
2022-11-14T00:43:50.955Z,92.20
2022-11-14T00:46:36.895Z,101.70
2022-11-14T00:49:23.848Z,101.57
2022-11-14T00:52:09.920Z,110.73
2022-11-14T00:54:56.408Z,111.07
2022-11-14T00:57:42.364Z,125.80
2022-11-14T01:00:29.019Z,107.27
2022-11-14T01:03:15.460Z,122.67
2022-11-14T01:06:05.435Z,116.63
2022-11-14T01:08:52.475Z,130.03
2022-11-14T01:11:38.763Z,124.23
2022-11-14T01:14:25.038Z,111.40
2022-11-14T01:17:11.502Z,123.73
2022-11-14T01:19:57.641Z,107.70
2022-11-14T01:22:44.113Z,129.33
2022-11-14T01:25:30.439Z,101.93
2022-11-14T01:28:17.910Z,96.37
2022-11-14T01:31:11.027Z,106.97
2022-11-14T01:33:57.388Z,95.73
2022-11-14T01:36:43.571Z,108.20
2022-11-14T01:39:30.157Z,109.60
2022-11-14T01:42:17.570Z,93.87
2022-11-14T01:45:24.050Z,144.47
2022-11-14T01:48:32.765Z,94.23
2022-11-14T01:51:22.561Z,100.33
2022-11-14T01:54:12.984Z,95.63
2022-11-14T01:57:18.333Z,91.30
2022-11-14T02:00:07.636Z,113.93
2022-11-14T02:02:54.461Z,85.47
2022-11-14T02:05:41.117Z,86.43
2022-11-14T02:08:27.947Z,90.40
2022-11-14T02:11:14.398Z,98.67
2022-11-14T02:14:01.433Z,98.93
2022-11-14T02:17:01.081Z,149.90
2022-11-14T02:19:54.069Z,139.43
2022-11-14T02:22:40.900Z,127.43
2022-11-14T02:25:27.204Z,103.33
2022-11-14T02:28:13.125Z,101.77
2022-11-14T02:30:59.613Z,87.53
2022-11-14T02:33:45.963Z,112.00
2022-11-14T02:36:32.490Z,110.77
2022-11-14T02:39:18.801Z,107.33
2022-11-14T02:42:05.389Z,118.07
2022-11-14T02:44:51.262Z,126.40
2022-11-14T02:47:37.794Z,155.10
2022-11-14T02:50:23.908Z,113.47
2022-11-14T02:53:10.430Z,107.13
2022-11-14T02:55:56.400Z,91.93
2022-11-14T02:58:42.902Z,131.67
2022-11-14T03:01:28.876Z,138.03
2022-11-14T03:04:15.618Z,169.63
2022-11-14T03:07:03.540Z,96.60
2022-11-14T03:09:50.029Z,118.03
2022-11-14T03:12:36.189Z,99.10
2022-11-14T03:15:22.431Z,121.33
2022-11-14T03:18:08.350Z,116.57
2022-11-14T03:20:54.732Z,86.17
2022-11-14T03:23:40.818Z,94.83
2022-11-14T03:26:27.219Z,83.80
2022-11-14T03:29:13.365Z,107.57
2022-11-14T03:32:01.502Z,107.97
2022-11-14T03:34:49.814Z,154.23
2022-11-14T03:37:36.541Z,107.93
2022-11-14T03:40:22.684Z,92.00
2022-11-14T03:43:09.503Z,102.03
2022-11-14T03:45:58.491Z,91.33
2022-11-14T03:48:45.161Z,127.70
2022-11-14T03:51:31.196Z,155.53
2022-11-14T03:54:17.801Z,93.73
2022-11-14T03:57:03.865Z,93.90
2022-11-14T03:59:51.756Z,92.73
2022-11-14T04:02:37.801Z,78.50
2022-11-14T04:05:24.772Z,86.73
2022-11-14T04:08:11.418Z,87.00
2022-11-14T04:10:57.927Z,80.93
2022-11-14T04:13:44.116Z,82.87
2022-11-14T04:16:30.549Z,83.13
2022-11-14T04:19:16.752Z,69.83
2022-11-14T04:22:04.529Z,59.00
2022-11-14T04:24:52.622Z,46.73
2022-11-14T04:27:39.202Z,59.90
2022-11-14T04:30:25.340Z,56.27
2022-11-14T04:33:12.121Z,68.97
2022-11-14T04:35:58.371Z,71.20
2022-11-14T04:38:45.008Z,79.33
2022-11-14T04:41:30.857Z,94.50
2022-11-14T04:44:17.498Z,85.47
2022-11-14T04:47:03.612Z,88.70
2022-11-14T04:49:50.562Z,80.50
2022-11-14T04:52:37.180Z,87.63
2022-11-14T04:55:23.673Z,83.23
2022-11-14T04:58:09.782Z,82.50
2022-11-14T05:00:57.921Z,77.53
2022-11-14T05:03:44.416Z,83.30
2022-11-14T05:06:30.775Z,78.07
2022-11-14T05:09:17.152Z,100.70
2022-11-14T05:12:04.155Z,163.00
2022-11-14T05:14:53.398Z,102.60
2022-11-14T05:17:39.985Z,144.37
2022-11-14T05:20:26.160Z,119.97
2022-11-14T05:23:23.128Z,186.17
2022-11-14T05:26:10.684Z,115.40
2022-11-14T05:28:56.983Z,85.37
2022-11-14T05:31:42.951Z,88.27
2022-11-14T05:34:29.527Z,89.97
2022-11-14T05:37:15.815Z,142.40
2022-11-14T05:40:02.301Z,104.10
2022-11-14T05:42:48.526Z,102.47
2022-11-14T05:45:34.962Z,88.83
2022-11-14T05:48:21.115Z,119.13
2022-11-14T05:51:08.526Z,102.30
2022-11-14T05:53:55.486Z,135.90
2022-11-14T05:56:41.905Z,155.47
2022-11-14T05:59:28.057Z,102.03
2022-11-14T06:02:14.662Z,118.87
2022-11-14T06:05:19.578Z,84.43
2022-11-14T06:08:06.024Z,125.67
2022-11-14T06:10:51.925Z,96.17
2022-11-14T06:13:38.729Z,83.37
2022-11-14T06:16:24.998Z,79.10
2022-11-14T06:19:11.490Z,68.20
2022-11-14T06:21:57.423Z,72.57
2022-11-14T06:24:43.938Z,89.47
2022-11-14T06:27:30.175Z,63.20
2022-11-14T06:30:16.654Z,73.57
2022-11-14T06:33:02.456Z,74.13
2022-11-14T06:35:48.975Z,71.27
2022-11-14T06:38:36.226Z,83.70
2022-11-14T06:41:23.228Z,77.73
2022-11-14T06:44:09.830Z,50.97
2022-11-14T06:46:56.585Z,57.13
2022-11-14T06:50:01.419Z,51.53
2022-11-14T06:52:47.549Z,58.33
2022-11-14T06:55:33.522Z,50.90
2022-11-14T06:58:20.044Z,87.73
2022-11-14T07:01:06.040Z,52.57
2022-11-14T07:03:52.821Z,62.13
2022-11-14T07:06:39.093Z,56.87
2022-11-14T07:09:25.665Z,45.03
2022-11-14T07:12:11.613Z,53.27
2022-11-14T07:14:59.785Z,74.77
2022-11-14T07:17:45.700Z,53.80
2022-11-14T07:20:32.305Z,42.57
2022-11-14T07:23:22.712Z,42.53
2022-11-14T07:26:11.321Z,44.75
2022-11-14T07:29:02.055Z,41.57
2022-11-14T07:31:49.082Z,40.03
2022-11-14T07:34:35.141Z,44.23
2022-11-14T07:37:21.723Z,38.77
2022-11-14T07:40:08.109Z,37.57
2022-11-14T07:42:58.117Z,36.92
2022-11-14T07:45:44.502Z,38.92
2022-11-14T07:48:32.078Z,36.22
2022-11-14T07:51:19.722Z,42.58
2022-11-14T07:54:06.102Z,40.42
2022-11-14T07:56:52.038Z,59.80
2022-11-14T07:59:38.780Z,41.70
2022-11-14T08:02:24.985Z,44.05
2022-11-14T08:05:11.495Z,40.72
2022-11-14T08:07:58.156Z,48.28
2022-11-14T08:10:44.759Z,51.70
2022-11-14T08:13:32.986Z,53.55
2022-11-14T08:16:19.494Z,49.78
2022-11-14T08:19:05.909Z,42.65
2022-11-14T08:21:52.565Z,40.30
2022-11-14T08:24:38.856Z,42.72
2022-11-14T08:27:26.054Z,41.25
2022-11-14T08:30:12.838Z,38.92
2022-11-14T08:33:02.382Z,43.42
2022-11-14T08:35:48.594Z,50.72
2022-11-14T08:38:35.259Z,48.65
2022-11-14T08:41:21.412Z,39.10
2022-11-14T08:44:08.394Z,37.80
2022-11-14T08:46:54.802Z,35.47
2022-11-14T08:49:41.414Z,42.13
2022-11-14T08:52:29.515Z,39.33
2022-11-14T08:55:16.189Z,38.80
2022-11-14T08:58:02.334Z,40.88
2022-11-14T09:00:48.902Z,36.03
2022-11-14T09:03:35.722Z,36.80
2022-11-14T09:06:22.495Z,39.05
2022-11-14T09:09:08.463Z,38.78
2022-11-14T09:11:55.069Z,35.08
2022-11-14T09:14:41.425Z,34.25
2022-11-14T09:17:27.732Z,35.00
2022-11-14T09:20:14.210Z,38.92
2022-11-14T09:23:00.950Z,34.85
2022-11-14T09:25:47.258Z,39.88
2022-11-14T09:28:33.995Z,36.83
2022-11-14T09:31:20.057Z,34.88
2022-11-14T09:34:06.697Z,40.67
2022-11-14T09:36:52.846Z,35.92
2022-11-14T09:39:40.758Z,41.05
2022-11-14T09:42:46.175Z,38.75
2022-11-14T09:45:34.239Z,38.58
2022-11-14T09:48:22.135Z,36.42
2022-11-14T09:51:10.622Z,32.97
2022-11-14T09:54:12.087Z,36.15
2022-11-14T09:56:58.723Z,33.05
2022-11-14T09:59:45.115Z,31.30
2022-11-14T10:02:45.527Z,33.53
2022-11-14T10:05:37.761Z,34.28
2022-11-14T10:08:39.290Z,35.65
2022-11-14T10:11:25.322Z,35.60
2022-11-14T10:14:20.852Z,35.10
2022-11-14T10:17:26.279Z,36.65
2022-11-14T10:20:33.888Z,35.17
2022-11-14T10:23:40.584Z,31.08
2022-11-14T10:26:30.222Z,30.50
2022-11-14T10:29:34.695Z,29.63
2022-11-14T10:32:50.400Z,33.05
2022-11-14T10:35:39.054Z,31.13
2022-11-14T10:38:30.856Z,37.03
2022-11-14T10:41:41.627Z,30.33
2022-11-14T10:44:27.202Z,32.60
2022-11-14T10:47:15.439Z,29.33
2022-11-14T10:50:05.573Z,30.13
2022-11-14T10:52:56.890Z,31.63
2022-11-14T10:56:03.053Z,26.42
2022-11-14T10:58:50.096Z,29.42
2022-11-14T11:01:41.549Z,29.25
2022-11-14T11:04:28.605Z,28.30
2022-11-14T11:07:41.589Z,29.83
2022-11-14T11:10:46.584Z,30.90
2022-11-14T11:13:33.092Z,27.80
2022-11-14T11:16:20.804Z,27.30
2022-11-14T11:19:23.649Z,27.60
2022-11-14T11:22:26.774Z,29.17
2022-11-14T11:25:24.740Z,27.38
2022-11-14T11:28:37.191Z,30.73
2022-11-14T11:31:23.621Z,30.48
2022-11-14T11:34:10.067Z,30.35
2022-11-14T11:36:59.707Z,30.90
2022-11-14T11:39:48.611Z,32.78
2022-11-14T11:43:36.631Z,33.05
2022-11-14T11:45:55.787Z,32.67
2022-11-14T11:48:42.710Z,33.70
2022-11-14T11:51:31.314Z,34.35
2022-11-14T11:54:20.433Z,33.35
2022-11-14T11:57:11.337Z,34.30
2022-11-14T12:00:04.749Z,35.38
2022-11-14T12:02:52.557Z,35.35
2022-11-14T12:05:59.250Z,35.53
2022-11-14T12:08:57.706Z,36.70
2022-11-14T12:11:46.373Z,36.90
2022-11-14T12:14:45.243Z,39.17
2022-11-14T12:17:52.352Z,39.58
2022-11-14T12:20:38.434Z,36.35
2022-11-14T12:23:43.554Z,36.97
2022-11-14T12:26:40.825Z,36.78
2022-11-14T12:29:43.163Z,35.15
2022-11-14T12:35:19.340Z,36.42
2022-11-14T12:38:13.753Z,37.05
2022-11-14T12:41:01.172Z,36.75
2022-11-14T12:43:47.727Z,39.78
2022-11-14T12:46:53.128Z,39.35
2022-11-14T12:49:48.355Z,38.03
2022-11-14T12:52:51.387Z,42.08
2022-11-14T12:55:37.602Z,46.85
2022-11-14T12:58:24.007Z,47.28
2022-11-14T13:01:21.002Z,46.28
2022-11-14T13:04:07.579Z,46.05
2022-11-14T13:07:12.605Z,44.33
2022-11-14T13:10:02.887Z,47.70
2022-11-14T13:13:17.114Z,46.17
2022-11-14T13:16:23.064Z,43.20
2022-11-14T13:19:31.092Z,44.10
2022-11-14T13:22:20.976Z,44.80
2022-11-14T13:25:07.317Z,42.30
2022-11-14T13:28:18.916Z,45.00
2022-11-14T13:31:16.808Z,43.65
2022-11-14T13:37:11.282Z,40.40
2022-11-14T13:40:06.666Z,42.67
2022-11-14T13:43:02.381Z,44.92
2022-11-14T13:45:59.006Z,45.03
2022-11-14T13:49:00.520Z,47.00
2022-11-14T13:51:47.277Z,44.58
2022-11-14T13:54:33.502Z,42.85
2022-11-14T13:57:28.921Z,43.03
2022-11-14T14:00:20.474Z,57.40
2022-11-14T14:03:07.541Z,45.75
2022-11-14T14:06:06.180Z,48.00
2022-11-14T14:09:13.231Z,44.88
2022-11-14T14:12:17.672Z,46.70
2022-11-14T14:15:17.725Z,45.97
2022-11-14T14:18:04.112Z,49.92
2022-11-14T14:20:53.178Z,50.42
2022-11-14T14:23:39.637Z,53.28
2022-11-14T14:26:28.949Z,55.30
2022-11-14T14:29:34.000Z,58.03
2022-11-14T14:32:20.487Z,54.45
2022-11-14T14:35:26.000Z,53.47
2022-11-14T14:38:13.714Z,57.30
2022-11-14T14:40:59.700Z,60.22
2022-11-14T14:43:55.703Z,50.45
2022-11-14T14:46:41.698Z,52.72
2022-11-14T14:49:31.166Z,59.38
2022-11-14T14:52:21.395Z,41.85
2022-11-14T14:55:18.501Z,44.97
2022-11-14T14:58:34.477Z,37.80
2022-11-14T15:01:23.647Z,46.95
2022-11-14T15:04:13.917Z,51.25
2022-11-14T15:07:00.637Z,59.78
2022-11-14T15:09:57.637Z,87.28
2022-11-14T15:12:44.120Z,63.45
2022-11-14T15:15:31.856Z,57.63
2022-11-14T15:18:25.625Z,57.35
2022-11-14T15:21:24.745Z,118.57
2022-11-14T15:24:22.011Z,55.63
2022-11-14T15:27:15.797Z,97.20
2022-11-14T15:30:03.595Z,49.55
2022-11-14T15:32:51.381Z,72.88
2022-11-14T15:35:41.197Z,48.63
2022-11-14T15:38:44.514Z,54.22
2022-11-14T15:41:32.155Z,70.30
2022-11-14T15:44:46.330Z,88.00
2022-11-14T15:47:37.560Z,108.22
2022-11-14T15:50:26.001Z,146.43
2022-11-14T15:53:18.260Z,131.32
2022-11-14T15:58:51.000Z,128.57
2022-11-14T16:01:37.784Z,154.77
2022-11-14T16:04:26.950Z,187.00
2022-11-14T16:07:13.650Z,171.80
2022-11-14T16:10:00.600Z,133.45
2022-11-14T16:12:52.223Z,149.00
2022-11-14T16:18:25.691Z,108.13
2022-11-14T16:21:14.355Z,90.57
2022-11-14T16:24:01.294Z,91.32
2022-11-14T16:26:49.115Z,91.55
2022-11-14T16:29:35.130Z,99.13
2022-11-14T16:32:23.387Z,127.95
2022-11-14T16:35:16.972Z,129.70
2022-11-14T16:38:03.278Z,114.45
2022-11-14T16:40:49.214Z,105.72
2022-11-14T16:43:35.718Z,144.15
2022-11-14T16:46:21.978Z,258.33
2022-11-14T16:49:08.763Z,163.45
2022-11-14T16:51:56.727Z,122.63
2022-11-14T16:54:43.284Z,162.43
2022-11-14T16:57:29.474Z,142.45
2022-11-14T17:00:16.275Z,127.55
2022-11-14T17:03:02.898Z,165.15
2022-11-14T17:05:50.911Z,226.07
2022-11-14T17:08:37.145Z,234.73
2022-11-14T17:11:23.838Z,230.45
2022-11-14T17:14:09.985Z,188.70
2022-11-14T17:16:56.524Z,225.85
2022-11-14T17:19:46.117Z,175.52
2022-11-14T17:22:32.763Z,372.17
2022-11-14T17:25:38.515Z,287.15
2022-11-14T17:28:25.042Z,217.05
2022-11-14T17:31:11.196Z,216.55
2022-11-14T17:33:58.723Z,211.30
2022-11-14T17:36:44.763Z,205.88
2022-11-14T17:39:31.500Z,238.63
2022-11-14T17:42:17.672Z,223.43
2022-11-14T17:45:04.345Z,189.23
2022-11-14T17:47:52.067Z,197.47
2022-11-14T17:50:40.476Z,196.30
2022-11-14T17:53:26.965Z,187.00
2022-11-14T17:56:17.207Z,186.68
2022-11-14T17:59:03.391Z,193.07
2022-11-14T18:01:50.135Z,182.33
2022-11-14T18:04:36.372Z,169.73
2022-11-14T18:07:23.168Z,171.30
2022-11-14T18:10:09.802Z,148.60
2022-11-14T18:13:15.715Z,183.03
2022-11-14T18:16:03.169Z,145.70
2022-11-14T18:18:51.378Z,191.80
2022-11-14T18:21:38.739Z,172.87
2022-11-14T18:24:25.296Z,164.23
2022-11-14T18:27:11.168Z,189.70
2022-11-14T18:30:08.103Z,200.33
2022-11-14T18:33:06.055Z,218.07
2022-11-14T18:35:59.396Z,166.97
2022-11-14T18:38:45.887Z,161.53
2022-11-14T18:41:32.376Z,163.33
2022-11-14T18:44:18.395Z,168.03
2022-11-14T18:47:04.916Z,149.70
2022-11-14T18:49:51.078Z,141.57
2022-11-14T18:52:37.845Z,156.50
2022-11-14T18:55:23.787Z,172.90
2022-11-14T18:58:10.342Z,202.87
2022-11-14T19:00:56.660Z,198.97
2022-11-14T19:03:43.569Z,240.17
2022-11-14T19:06:33.684Z,228.40
2022-11-14T19:09:23.615Z,187.33
2022-11-14T19:12:20.919Z,172.07
2022-11-14T19:15:07.863Z,147.47
2022-11-14T19:17:54.234Z,156.03
2022-11-14T19:20:42.145Z,214.80
2022-11-14T19:23:28.602Z,194.93
2022-11-14T19:26:15.217Z,203.27
2022-11-14T19:29:05.353Z,214.37
2022-11-14T19:31:53.315Z,207.70
2022-11-14T19:34:39.579Z,228.53
2022-11-14T19:37:26.261Z,250.70
2022-11-14T19:40:12.551Z,244.97
2022-11-14T19:43:02.386Z,233.40
2022-11-14T19:45:49.027Z,296.13
2022-11-14T19:48:36.922Z,260.30
2022-11-14T19:51:23.182Z,265.20
2022-11-14T19:54:10.685Z,260.47
2022-11-14T19:56:56.997Z,210.90
2022-11-14T19:59:43.487Z,215.97
2022-11-14T20:02:29.770Z,182.77
2022-11-14T20:05:16.398Z,180.13
2022-11-14T20:08:22.459Z,155.43
2022-11-14T20:11:08.895Z,149.60
2022-11-14T20:13:56.093Z,465.97
2022-11-14T20:16:42.636Z,374.73
2022-11-14T20:19:28.480Z,331.00
2022-11-14T20:22:14.989Z,224.80
2022-11-14T20:25:01.063Z,212.17
2022-11-14T20:27:49.028Z,174.47
2022-11-14T20:30:39.125Z,171.40
2022-11-14T20:33:25.718Z,156.27
2022-11-14T20:36:13.643Z,158.53
2022-11-14T20:39:00.086Z,164.93
2022-11-14T20:41:46.415Z,170.10
2022-11-14T20:44:32.736Z,163.57
2022-11-14T20:47:18.917Z,142.10
2022-11-14T20:50:05.554Z,148.30
2022-11-14T20:52:51.615Z,129.47
2022-11-14T20:55:38.192Z,134.37
2022-11-14T20:58:24.227Z,133.97
2022-11-14T21:01:10.745Z,157.03
2022-11-14T21:03:56.809Z,170.90
2022-11-14T21:06:43.370Z,320.60
2022-11-14T21:09:30.335Z,168.90
2022-11-14T21:12:16.790Z,170.03
2022-11-14T21:15:02.863Z,144.63
2022-11-14T21:17:49.317Z,141.70
2022-11-14T21:20:35.432Z,122.90
2022-11-14T21:23:22.316Z,161.93
2022-11-14T21:26:08.412Z,140.87
2022-11-14T21:28:56.917Z,162.60
2022-11-14T21:31:44.840Z,168.70
2022-11-14T21:34:31.207Z,162.07
2022-11-14T21:37:17.109Z,197.77
2022-11-14T21:40:03.636Z,204.37
2022-11-14T21:42:49.753Z,159.10
2022-11-14T21:45:59.929Z,122.43
2022-11-14T21:48:47.223Z,151.13
2022-11-14T21:51:33.455Z,151.83
2022-11-14T21:54:19.510Z,134.07
2022-11-14T21:57:09.953Z,123.67
2022-11-14T21:59:57.007Z,113.60
2022-11-14T22:03:02.559Z,109.83
2022-11-14T22:05:48.764Z,90.13
2022-11-14T22:08:35.257Z,110.77
2022-11-14T22:11:21.993Z,111.27
2022-11-14T22:14:08.721Z,107.87
2022-11-14T22:16:54.965Z,144.07
2022-11-14T22:19:41.687Z,102.00
2022-11-14T22:22:27.648Z,98.70
2022-11-14T22:25:14.317Z,95.57
2022-11-14T22:28:00.546Z,97.90
2022-11-14T22:30:47.083Z,118.70
2022-11-14T22:33:34.223Z,111.70
2022-11-14T22:36:22.205Z,96.40
2022-11-14T22:39:08.619Z,103.27
2022-11-14T22:41:55.047Z,105.07
2022-11-14T22:44:41.117Z,103.20
2022-11-14T22:47:27.663Z,111.60
2022-11-14T22:50:13.505Z,112.87
2022-11-14T22:52:59.964Z,104.07
2022-11-14T22:55:49.673Z,87.40
2022-11-14T22:58:36.772Z,98.20
2022-11-14T23:01:24.103Z,113.10
2022-11-14T23:04:10.836Z,97.00
2022-11-14T23:06:57.339Z,89.40
2022-11-14T23:09:43.749Z,96.87
2022-11-14T23:12:29.795Z,139.87
2022-11-14T23:15:16.397Z,103.03
2022-11-14T23:18:02.543Z,119.50
2022-11-14T23:20:49.358Z,116.03
2022-11-14T23:23:35.487Z,112.10
2022-11-14T23:26:22.878Z,136.70
2022-11-14T23:29:12.170Z,107.43
2022-11-14T23:31:58.185Z,117.17
2022-11-14T23:34:44.213Z,108.23
2022-11-14T23:37:30.937Z,96.60
2022-11-14T23:40:16.891Z,94.60
2022-11-14T23:43:03.442Z,93.93
2022-11-14T23:45:49.775Z,106.37
2022-11-14T23:48:36.057Z,118.60
2022-11-14T23:51:22.361Z,110.13
2022-11-14T23:54:08.975Z,118.87
2022-11-14T23:56:57.776Z,108.90
2022-11-14T23:59:47.818Z,79.60
